createdAt,value
2022-08-06T00:00:08.190Z,102043.53
2022-08-06T00:02:36.680Z,102050.75
2022-08-06T00:05:06.712Z,102046.16
2022-08-06T00:07:45.203Z,102049.56
2022-08-06T00:10:17.256Z,102046.84
2022-08-06T00:12:46.099Z,102048.00
2022-08-06T00:15:20.048Z,102045.56
2022-08-06T00:18:06.440Z,102046.97
2022-08-06T00:20:34.449Z,102050.25
2022-08-06T00:23:16.437Z,102053.78
2022-08-06T00:25:52.399Z,102058.41
2022-08-06T00:28:30.814Z,102071.41
2022-08-06T00:31:11.541Z,102065.25
2022-08-06T00:33:44.402Z,102070.97
2022-08-06T00:36:30.431Z,102067.22
2022-08-06T00:39:06.236Z,102067.25
2022-08-06T00:41:42.205Z,102067.25
2022-08-06T00:44:14.389Z,102067.34
2022-08-06T00:46:42.947Z,102057.09
2022-08-06T00:49:12.049Z,102071.66
2022-08-06T00:51:50.236Z,102078.16
2022-08-06T00:54:28.977Z,102071.72
2022-08-06T00:57:11.997Z,102077.13
2022-08-06T00:59:39.707Z,102078.75
2022-08-06T01:02:09.587Z,102081.47
2022-08-06T01:04:38.174Z,102077.41
2022-08-06T01:07:05.616Z,102077.69
2022-08-06T01:09:46.165Z,102079.91
2022-08-06T01:12:31.769Z,102078.59
2022-08-06T01:15:02.827Z,102088.88
2022-08-06T01:17:39.133Z,102085.94
2022-08-06T01:22:01.500Z,102088.66
2022-08-06T01:24:04.981Z,102091.09
2022-08-06T01:27:03.129Z,102091.13
2022-08-06T01:29:40.251Z,102104.44
2022-08-06T01:32:16.159Z,102097.41
2022-08-06T01:34:56.150Z,102103.91
2022-08-06T01:37:49.673Z,102102.81
2022-08-06T01:40:23.905Z,102102.31
2022-08-06T01:42:56.066Z,102096.63
2022-08-06T01:45:32.672Z,102093.38
2022-08-06T01:48:28.880Z,102095.56
2022-08-06T01:50:59.267Z,102087.47
2022-08-06T01:54:06.008Z,102096.91
2022-08-06T01:56:25.943Z,102085.13
2022-08-06T01:59:01.448Z,102081.28
2022-08-06T02:01:41.004Z,102087.81
2022-08-06T02:04:25.299Z,102084.56
2022-08-06T02:06:56.909Z,102093.47
2022-08-06T02:09:27.755Z,102094.28
2022-08-06T02:12:06.675Z,102104.06
2022-08-06T02:14:49.988Z,102089.44
2022-08-06T02:17:53.893Z,102106.25
2022-08-06T02:20:18.497Z,102103.53
2022-08-06T02:22:47.428Z,102085.47
2022-08-06T02:25:21.619Z,102099.47
2022-08-06T02:27:59.164Z,102105.66
2022-08-06T02:30:34.828Z,102101.63
2022-08-06T02:33:08.258Z,102097.84
2022-08-06T02:35:42.018Z,102095.94
2022-08-06T02:38:29.607Z,102100.88
2022-08-06T02:41:18.097Z,102104.38
2022-08-06T02:43:52.272Z,102108.66
2022-08-06T02:46:35.328Z,102110.03
2022-08-06T02:49:25.567Z,102120.94
2022-08-06T02:52:11.533Z,102109.78
2022-08-06T02:55:07.460Z,102117.91
2022-08-06T02:57:50.666Z,102105.53
2022-08-06T03:00:19.707Z,102105.03
2022-08-06T03:02:49.836Z,102106.41
2022-08-06T03:05:55.948Z,102099.97
2022-08-06T03:08:11.482Z,102094.81
2022-08-06T03:10:41.659Z,102093.72
2022-08-06T03:13:10.901Z,102102.94
2022-08-06T03:16:00.004Z,102089.22
2022-08-06T03:18:28.586Z,102095.97
2022-08-06T03:20:57.587Z,102098.88
2022-08-06T03:23:26.897Z,102093.47
2022-08-06T03:25:55.557Z,102093.00
2022-08-06T03:28:25.401Z,102103.81
2022-08-06T03:30:55.755Z,102095.16
2022-08-06T03:33:29.363Z,102097.09
2022-08-06T03:36:11.909Z,102094.09
2022-08-06T03:38:54.514Z,102086.88
2022-08-06T03:41:29.359Z,102097.09
2022-08-06T03:44:07.499Z,102100.88
2022-08-06T03:46:41.441Z,102111.16
2022-08-06T03:49:26.094Z,102109.31
2022-08-06T03:51:55.858Z,102110.88
2022-08-06T03:54:32.143Z,102112.56
2022-08-06T03:57:09.881Z,102114.72
2022-08-06T03:59:43.613Z,102109.59
2022-08-06T04:02:45.040Z,102115.53
2022-08-06T04:05:20.960Z,102117.16
2022-08-06T04:07:57.266Z,102119.91
2022-08-06T04:10:33.651Z,102125.03
2022-08-06T04:13:41.081Z,102133.16
2022-08-06T04:15:56.984Z,102136.69
2022-08-06T04:18:28.459Z,102142.34
2022-08-06T04:21:19.690Z,102146.16
2022-08-06T04:23:47.544Z,102151.00
2022-08-06T04:26:18.847Z,102158.03
2022-08-06T04:28:57.335Z,102152.91
2022-08-06T04:32:03.108Z,102150.47
2022-08-06T04:34:26.834Z,102154.78
2022-08-06T04:36:55.973Z,102158.50
2022-08-06T04:39:25.333Z,102168.53
2022-08-06T04:42:00.442Z,102179.59
2022-08-06T04:44:29.187Z,102177.44
2022-08-06T04:46:58.245Z,102185.50
2022-08-06T04:49:57.475Z,102197.13
2022-08-06T04:52:36.602Z,102208.69
2022-08-06T04:55:24.850Z,102211.91
2022-08-06T04:58:08.169Z,102232.97
2022-08-06T05:01:03.382Z,102233.47
2022-08-06T05:04:07.940Z,102232.91
2022-08-06T05:06:34.908Z,102245.28
2022-08-06T05:09:23.457Z,102244.41
2022-08-06T05:12:07.642Z,102250.09
2022-08-06T05:14:47.294Z,102261.38
2022-08-06T05:17:17.046Z,102261.34
2022-08-06T05:19:47.849Z,102270.22
2022-08-06T05:22:19.622Z,102275.91
2022-08-06T05:25:11.979Z,102277.97
2022-08-06T05:28:04.020Z,102290.84
2022-08-06T05:30:31.389Z,102294.09
2022-08-06T05:32:59.447Z,102310.25
2022-08-06T05:35:40.587Z,102321.06
2022-08-06T05:38:11.058Z,102322.06
2022-08-06T05:40:53.450Z,102333.69
2022-08-06T05:43:25.687Z,102339.31
2022-08-06T05:45:59.056Z,102350.56
2022-08-06T05:48:29.976Z,102360.81
2022-08-06T05:51:00.563Z,102361.53
2022-08-06T05:54:03.079Z,102374.41
2022-08-06T05:56:39.257Z,102378.91
2022-08-06T05:59:37.363Z,102388.09
2022-08-06T06:02:10.308Z,102376.72
2022-08-06T06:04:39.015Z,102392.84
2022-08-06T06:08:07.920Z,102396.50
2022-08-06T06:10:04.929Z,102399.13
2022-08-06T06:12:33.790Z,102398.78
2022-08-06T06:15:59.484Z,102399.78
2022-08-06T06:18:12.549Z,102423.00
2022-08-06T06:21:17.955Z,102421.81
2022-08-06T06:23:55.186Z,102431.53
2022-08-06T06:27:01.701Z,102433.84
2022-08-06T06:30:05.925Z,102429.69
2022-08-06T06:32:47.793Z,102436.75
2022-08-06T06:35:38.620Z,102440.91
2022-08-06T06:38:24.784Z,102452.53
2022-08-06T06:41:20.902Z,102457.59
2022-08-06T06:43:54.385Z,102437.84
2022-08-06T06:46:36.297Z,102449.00
2022-08-06T06:50:00.165Z,102452.16
2022-08-06T06:52:23.627Z,102455.59
2022-08-06T06:55:18.886Z,102459.22
2022-08-06T06:57:52.849Z,102468.34
2022-08-06T07:00:45.378Z,102475.41
2022-08-06T07:03:09.597Z,102478.53
2022-08-06T07:06:09.703Z,102484.19
2022-08-06T07:08:37.592Z,102500.63
2022-08-06T07:11:09.987Z,102493.38
2022-08-06T07:13:47.441Z,102498.66
2022-08-06T07:16:36.050Z,102501.84
2022-08-06T07:19:10.628Z,102511.34
2022-08-06T07:21:47.665Z,102506.03
2022-08-06T07:24:38.343Z,102509.84
2022-08-06T07:27:07.742Z,102515.78
2022-08-06T07:29:49.610Z,102517.41
2022-08-06T07:32:31.603Z,102523.63
2022-08-06T07:35:13.155Z,102527.47
2022-08-06T07:37:51.851Z,102532.09
2022-08-06T07:40:28.612Z,102530.88
2022-08-06T07:43:11.520Z,102537.72
2022-08-06T07:45:55.429Z,102543.19
2022-08-06T07:48:28.913Z,102549.75
2022-08-06T07:51:01.707Z,102548.59
2022-08-06T07:53:52.305Z,102550.53
2022-08-06T07:56:26.061Z,102557.00
2022-08-06T07:58:57.417Z,102550.97
2022-08-06T08:01:28.441Z,102563.66
2022-08-06T08:04:34.356Z,102554.75
2022-08-06T08:07:07.709Z,102564.31
2022-08-06T08:10:02.295Z,102571.97
2022-08-06T08:12:35.433Z,102566.66
2022-08-06T08:15:19.208Z,102567.34
2022-08-06T08:17:57.231Z,102563.78
2022-08-06T08:20:34.592Z,102567.84
2022-08-06T08:23:07.750Z,102570.22
2022-08-06T08:25:43.198Z,102574.63
2022-08-06T08:28:16.947Z,102574.81
2022-08-06T08:30:46.965Z,102574.75
2022-08-06T08:33:21.567Z,102572.38
2022-08-06T08:35:50.403Z,102580.13
2022-08-06T08:38:32.344Z,102572.72
2022-08-06T08:41:07.619Z,102579.16
2022-08-06T08:44:01.000Z,102579.06
2022-08-06T08:46:43.811Z,102586.03
2022-08-06T08:49:46.870Z,102579.78
2022-08-06T08:52:18.046Z,102574.84
2022-08-06T08:54:51.789Z,102586.28
2022-08-06T08:58:38.020Z,102586.75
2022-08-06T09:00:10.629Z,102591.59
2022-08-06T09:02:48.307Z,102586.09
2022-08-06T09:05:18.073Z,102582.56
2022-08-06T09:07:52.516Z,102585.28
2022-08-06T09:10:28.558Z,102595.41
2022-08-06T09:12:59.566Z,102585.56
2022-08-06T09:15:28.266Z,102577.38
2022-08-06T09:18:11.463Z,102574.13
2022-08-06T09:20:47.417Z,102584.91
2022-08-06T09:23:17.228Z,102584.72
2022-08-06T09:25:51.902Z,102578.78
2022-08-06T09:28:45.120Z,102594.72
2022-08-06T09:31:21.944Z,102588.59
2022-08-06T09:34:30.277Z,102597.56
2022-08-06T09:36:57.430Z,102597.44
2022-08-06T09:39:59.507Z,102596.09
2022-08-06T09:42:51.534Z,102602.88
2022-08-06T09:45:42.287Z,102606.56
2022-08-06T09:48:17.583Z,102607.03
2022-08-06T09:50:51.037Z,102599.16
2022-08-06T09:53:21.823Z,102601.69
2022-08-06T09:55:53.381Z,102596.16
2022-08-06T09:58:37.408Z,102587.66
2022-08-06T10:01:22.743Z,102596.72
2022-08-06T10:04:05.167Z,102593.50
2022-08-06T10:06:55.852Z,102605.53
2022-08-06T10:09:41.555Z,102597.44
2022-08-06T10:12:20.118Z,102609.06
2022-08-06T10:14:55.964Z,102598.91
2022-08-06T10:17:24.525Z,102598.31
2022-08-06T10:20:18.414Z,102595.34
2022-08-06T10:22:55.266Z,102601.31
2022-08-06T10:25:29.598Z,102599.22
2022-08-06T10:27:59.391Z,102595.53
2022-08-06T10:30:33.424Z,102604.44
2022-08-06T10:33:18.373Z,102601.81
2022-08-06T10:35:58.742Z,102601.63
2022-08-06T10:38:38.805Z,102601.03
2022-08-06T10:41:59.079Z,102594.00
2022-08-06T10:44:11.280Z,102599.41
2022-08-06T10:46:39.220Z,102597.06
2022-08-06T10:50:24.072Z,102588.69
2022-08-06T10:51:58.758Z,102588.63
2022-08-06T10:54:27.267Z,102594.22
2022-08-06T10:56:56.291Z,102581.13
2022-08-06T10:59:25.850Z,102584.09
2022-08-06T11:02:59.371Z,102580.25
2022-08-06T11:05:53.302Z,102586.19
2022-08-06T11:08:41.878Z,102584.91
2022-08-06T11:12:14.668Z,102578.25
2022-08-06T11:14:46.016Z,102569.44
2022-08-06T11:17:13.546Z,102562.00
2022-08-06T11:19:56.910Z,102572.22
2022-08-06T11:22:53.376Z,102565.38
2022-08-06T11:25:40.435Z,102576.50
2022-08-06T11:28:09.329Z,102560.75
2022-08-06T11:30:48.270Z,102558.19
2022-08-06T11:33:19.391Z,102562.41
2022-08-06T11:35:53.378Z,102560.38
2022-08-06T11:39:10.196Z,102563.91
2022-08-06T11:41:56.503Z,102557.72
2022-08-06T11:44:29.142Z,102558.09
2022-08-06T11:47:11.920Z,102566.22
2022-08-06T11:49:48.663Z,102567.00
2022-08-06T11:52:39.477Z,102568.28
2022-08-06T11:55:12.671Z,102565.41
2022-08-06T11:58:13.672Z,102566.97
2022-08-06T12:01:33.122Z,102575.31
2022-08-06T12:04:01.037Z,102563.22
2022-08-06T12:06:29.659Z,102569.78
2022-08-06T12:09:22.637Z,102566.25
2022-08-06T12:12:26.658Z,102565.72
2022-08-06T12:15:01.092Z,102565.19
2022-08-06T12:17:45.323Z,102548.41
2022-08-06T12:20:46.177Z,102543.56
2022-08-06T12:23:15.993Z,102542.59
2022-08-06T12:25:47.892Z,102546.13
2022-08-06T12:28:18.472Z,102543.72
2022-08-06T12:30:48.694Z,102539.84
2022-08-06T12:33:18.161Z,102550.72
2022-08-06T12:35:53.712Z,102546.75
2022-08-06T12:38:26.607Z,102557.91
2022-08-06T12:41:46.745Z,102562.41
2022-08-06T12:44:09.119Z,102550.31
2022-08-06T12:46:36.795Z,102549.25
2022-08-06T12:49:06.486Z,102543.88
2022-08-06T12:51:33.914Z,102549.78
2022-08-06T12:54:05.031Z,102538.84
2022-08-06T12:56:37.409Z,102537.47
2022-08-06T12:59:16.079Z,102544.28
2022-08-06T13:02:10.256Z,102531.31
2022-08-06T13:04:49.526Z,102534.19
2022-08-06T13:07:20.333Z,102517.09
2022-08-06T13:10:33.834Z,102540.94
2022-08-06T13:14:03.467Z,102536.94
2022-08-06T13:15:24.939Z,102520.22
2022-08-06T13:18:40.563Z,102527.41
2022-08-06T13:21:02.658Z,102527.25
2022-08-06T13:23:35.610Z,102539.69
2022-08-06T13:26:25.703Z,102536.94
2022-08-06T13:30:35.453Z,102539.66
2022-08-06T13:32:28.165Z,102529.28
2022-08-06T13:35:01.721Z,102529.97
2022-08-06T13:37:57.295Z,102527.81
2022-08-06T13:40:51.422Z,102521.50
2022-08-06T13:43:42.818Z,102524.53
2022-08-06T13:46:32.849Z,102514.31
2022-08-06T13:49:04.610Z,102521.16
2022-08-06T13:51:49.279Z,102522.25
2022-08-06T13:54:28.217Z,102520.81
2022-08-06T13:56:57.079Z,102515.13
2022-08-06T13:59:40.328Z,102514.97
2022-08-06T14:02:11.774Z,102517.38
2022-08-06T14:04:40.527Z,102518.75
2022-08-06T14:07:08.675Z,102513.34
2022-08-06T14:09:57.577Z,102499.22
2022-08-06T14:12:28.936Z,102515.22
2022-08-06T14:14:57.510Z,102507.31
2022-08-06T14:17:34.698Z,102509.41
2022-08-06T14:20:10.143Z,102514.69
2022-08-06T14:22:44.984Z,102518.66
2022-08-06T14:25:14.057Z,102519.06
2022-08-06T14:27:43.505Z,102521.31
2022-08-06T14:30:21.889Z,102522.69
2022-08-06T14:33:10.595Z,102522.81
2022-08-06T14:35:51.675Z,102513.69
2022-08-06T14:38:30.399Z,102510.03
2022-08-06T14:41:49.945Z,102500.53
2022-08-06T14:44:24.902Z,102498.13
2022-08-06T14:46:52.179Z,102493.00
2022-08-06T14:49:19.394Z,102484.19
2022-08-06T14:52:19.919Z,102487.31
2022-08-06T14:54:34.738Z,102485.47
2022-08-06T14:57:14.964Z,102498.09
2022-08-06T14:59:48.964Z,102504.31
2022-08-06T15:02:25.006Z,102495.06
2022-08-06T15:04:54.112Z,102495.03
2022-08-06T15:07:24.682Z,102494.91
2022-08-06T15:10:06.066Z,102499.94
2022-08-06T15:12:48.696Z,102496.63
2022-08-06T15:15:23.892Z,102496.34
2022-08-06T15:18:14.225Z,102496.31
2022-08-06T15:20:40.972Z,102487.91
2022-08-06T15:23:08.126Z,102500.28
2022-08-06T15:26:02.415Z,102482.63
2022-08-06T15:28:24.482Z,102490.53
2022-08-06T15:30:51.508Z,102484.69
2022-08-06T15:33:20.996Z,102485.06
2022-08-06T15:35:57.168Z,102480.38
2022-08-06T15:38:27.514Z,102486.13
2022-08-06T15:40:55.630Z,102480.94
2022-08-06T15:43:25.538Z,102476.97
2022-08-06T15:45:55.167Z,102470.66
2022-08-06T15:48:29.940Z,102477.09
2022-08-06T15:51:27.615Z,102482.47
2022-08-06T15:53:54.363Z,102475.00
2022-08-06T15:56:33.962Z,102471.75
2022-08-06T15:59:12.441Z,102479.03
2022-08-06T16:02:01.111Z,102477.09
2022-08-06T16:04:35.364Z,102478.19
2022-08-06T16:07:07.690Z,102486.09
2022-08-06T16:10:00.453Z,102483.13
2022-08-06T16:12:27.204Z,102486.06
2022-08-06T16:14:57.634Z,102491.16
2022-08-06T16:17:52.584Z,102490.69
2022-08-06T16:20:20.565Z,102494.19
2022-08-06T16:22:52.434Z,102503.69
2022-08-06T16:25:22.814Z,102497.56
2022-08-06T16:27:52.125Z,102497.72
2022-08-06T16:30:20.753Z,102496.72
2022-08-06T16:32:58.744Z,102502.69
2022-08-06T16:35:26.123Z,102497.66
2022-08-06T16:43:28.851Z,102509.16
2022-08-06T16:45:55.899Z,102519.63
2022-08-06T16:52:42.265Z,102506.66
2022-08-06T16:54:14.757Z,102504.34
2022-08-06T16:56:49.563Z,102510.91
2022-08-06T16:59:16.723Z,102501.16
2022-08-06T17:02:15.743Z,102508.13
2022-08-06T17:04:48.927Z,102505.84
2022-08-06T17:07:16.415Z,102515.47
2022-08-06T17:10:05.284Z,102503.94
2022-08-06T17:12:57.697Z,102511.25
2022-08-06T17:15:36.301Z,102511.56
2022-08-06T17:18:05.434Z,102509.03
2022-08-06T17:20:33.164Z,102507.88
2022-08-06T17:23:04.664Z,102513.72
2022-08-06T17:25:51.391Z,102499.13
2022-08-06T17:28:19.419Z,102499.63
2022-08-06T17:30:51.969Z,102510.28
2022-08-06T17:33:19.523Z,102506.75
2022-08-06T17:36:32.362Z,102511.69
2022-08-06T17:38:37.740Z,102507.94
2022-08-06T17:41:11.549Z,102511.69
2022-08-06T17:42:28.681Z,102505.66
2022-08-06T17:43:57.357Z,102511.44
2022-08-06T17:46:28.525Z,102514.81
2022-08-06T17:49:00.749Z,102517.06
2022-08-06T17:51:36.045Z,102515.69
2022-08-06T17:54:44.366Z,102520.28
2022-08-06T17:56:51.946Z,102520.50
2022-08-06T17:59:22.335Z,102511.78
2022-08-06T18:01:57.064Z,102521.81
2022-08-06T18:04:30.614Z,102514.91
2022-08-06T18:07:12.126Z,102525.41
2022-08-06T18:10:16.710Z,102534.53
2022-08-06T18:12:48.522Z,102527.47
2022-08-06T18:15:20.893Z,102530.94
2022-08-06T18:17:59.854Z,102530.31
2022-08-06T18:20:39.478Z,102523.28
2022-08-06T18:23:21.640Z,102526.63
2022-08-06T18:25:57.868Z,102530.00
2022-08-06T18:28:36.528Z,102534.00
2022-08-06T18:31:10.696Z,102541.44
2022-08-06T18:33:42.505Z,102539.66
2022-08-06T18:36:13.357Z,102532.63
2022-08-06T18:38:41.329Z,102534.91
2022-08-06T18:41:15.530Z,102538.53
2022-08-06T18:43:54.183Z,102543.66
2022-08-06T18:47:02.343Z,102547.72
2022-08-06T18:49:26.865Z,102543.72
2022-08-06T18:52:23.309Z,102555.34
2022-08-06T18:54:56.319Z,102555.53
2022-08-06T18:57:37.969Z,102553.44
2022-08-06T19:00:21.088Z,102554.53
2022-08-06T19:02:52.660Z,102559.84
2022-08-06T19:05:28.146Z,102565.00
2022-08-06T19:07:58.602Z,102566.75
2022-08-06T19:10:27.673Z,102570.16
2022-08-06T19:12:56.521Z,102561.28
2022-08-06T19:15:24.680Z,102574.63
2022-08-06T19:18:17.298Z,102570.44
2022-08-06T19:20:45.784Z,102576.06
2022-08-06T19:23:21.629Z,102571.69
2022-08-06T19:26:13.418Z,102567.31
2022-08-06T19:28:50.002Z,102572.78
2022-08-06T19:31:41.328Z,102565.16
2022-08-06T19:34:14.784Z,102571.44
2022-08-06T19:36:45.575Z,102565.44
2022-08-06T19:39:53.197Z,102566.66
2022-08-06T19:42:15.505Z,102564.88
2022-08-06T19:45:04.774Z,102563.91
2022-08-06T19:47:47.159Z,102572.00
2022-08-06T19:50:16.371Z,102569.25
2022-08-06T19:52:46.973Z,102570.69
2022-08-06T19:56:07.467Z,102574.47
2022-08-06T19:58:26.722Z,102582.66
2022-08-06T20:01:04.913Z,102579.94
2022-08-06T20:03:38.698Z,102578.47
2022-08-06T20:06:21.497Z,102591.50
2022-08-06T20:08:56.362Z,102584.41
2022-08-06T20:11:45.042Z,102582.56
2022-08-06T20:14:10.877Z,102582.16
2022-08-06T20:16:40.325Z,102590.97
2022-08-06T20:19:08.180Z,102596.63
2022-08-06T20:21:42.831Z,102597.53
2022-08-06T20:24:10.677Z,102604.13
2022-08-06T20:26:51.304Z,102612.78
2022-08-06T20:30:03.177Z,102607.75
2022-08-06T20:32:17.602Z,102599.69
2022-08-06T20:34:48.321Z,102610.31
2022-08-06T20:37:16.180Z,102614.59
2022-08-06T20:39:48.246Z,102606.00
2022-08-06T20:42:15.496Z,102619.34
2022-08-06T20:44:47.284Z,102611.44
2022-08-06T20:47:45.772Z,102619.91
2022-08-06T20:50:07.261Z,102620.06
2022-08-06T20:52:39.116Z,102609.97
2022-08-06T20:55:08.599Z,102624.22
2022-08-06T20:57:37.387Z,102622.81
2022-08-06T21:00:17.678Z,102620.66
2022-08-06T21:02:54.409Z,102622.72
2022-08-06T21:05:50.859Z,102617.56
2022-08-06T21:08:27.330Z,102621.28
2022-08-06T21:10:58.132Z,102623.59
2022-08-06T21:13:36.781Z,102618.34
2022-08-06T21:16:29.117Z,102622.56
2022-08-06T21:19:02.464Z,102636.31
2022-08-06T21:21:31.875Z,102623.97
2022-08-06T21:24:00.402Z,102621.41
2022-08-06T21:26:34.539Z,102629.22
2022-08-06T21:29:41.813Z,102629.56
2022-08-06T21:31:57.101Z,102626.94
2022-08-06T21:34:27.078Z,102638.47
2022-08-06T21:36:57.367Z,102641.19
2022-08-06T21:39:55.809Z,102638.19
2022-08-06T21:42:19.172Z,102631.00
2022-08-06T21:44:49.804Z,102629.28
2022-08-06T21:47:19.368Z,102634.25
2022-08-06T21:50:00.100Z,102627.63
2022-08-06T21:52:34.186Z,102628.81
2022-08-06T21:56:34.870Z,102633.75
2022-08-06T21:58:02.789Z,102625.72
2022-08-06T22:00:34.199Z,102637.13
2022-08-06T22:03:02.812Z,102634.16
2022-08-06T22:06:22.533Z,102630.97
2022-08-06T22:08:21.842Z,102638.66
2022-08-06T22:10:54.738Z,102632.78
2022-08-06T22:13:56.997Z,102631.69
2022-08-06T22:16:33.004Z,102644.97
2022-08-06T22:19:02.488Z,102641.00
2022-08-06T22:21:50.261Z,102636.44
2022-08-06T22:24:19.725Z,102638.97
2022-08-06T22:26:46.969Z,102637.38
2022-08-06T22:29:17.231Z,102632.91
2022-08-06T22:31:56.530Z,102633.22
2022-08-06T22:34:25.894Z,102631.47
2022-08-06T22:36:58.843Z,102633.63
2022-08-06T22:39:34.626Z,102631.81
2022-08-06T22:42:08.031Z,102633.00
2022-08-06T22:44:57.357Z,102633.59
2022-08-06T22:47:24.463Z,102629.66
2022-08-06T22:50:02.255Z,102625.34
2022-08-06T22:52:51.471Z,102627.88
2022-08-06T22:55:18.858Z,102624.53
2022-08-06T22:59:01.902Z,102620.72
2022-08-06T23:00:37.847Z,102622.91
2022-08-06T23:03:13.462Z,102623.53
2022-08-06T23:05:44.839Z,102616.34
2022-08-06T23:08:15.641Z,102605.75
2022-08-06T23:10:49.099Z,102618.16
2022-08-06T23:13:25.613Z,102610.53
2022-08-06T23:15:59.689Z,102609.53
2022-08-06T23:18:29.548Z,102598.44
2022-08-06T23:21:22.296Z,102598.44
2022-08-06T23:23:53.937Z,102600.59
2022-08-06T23:26:31.858Z,102597.69
2022-08-06T23:29:08.818Z,102596.56
2022-08-06T23:31:38.198Z,102596.63
2022-08-06T23:34:20.981Z,102584.44
2022-08-06T23:36:55.085Z,102595.66
2022-08-06T23:39:36.558Z,102593.25
2022-08-06T23:42:14.759Z,102585.25
2022-08-06T23:44:51.691Z,102590.09
2022-08-06T23:47:54.204Z,102578.78
2022-08-06T23:50:09.684Z,102582.25
2022-08-06T23:52:41.416Z,102576.13
2022-08-06T23:55:11.664Z,102567.25
2022-08-06T23:57:54.652Z,102564.28
